Terminal Aerodrome Forecast
Issued by NWS

Home | Current Version | Previous Version | Text Only | Print | Product List | Glossary On
Versions: 1 2 3 4 5 6 7 8 9 10 11 12 13
000
FTUS45 KRIW 222300
TAFJAC
TAF
KJAC 222327Z 2300/2324 VRB04KT P6SM VCTS SCT050CB BKN090
     FM230300 VRB05KT 6SM -SHRA SCT020 BKN035
     FM231600 17005KT P6SM SCT030 BKN060
     FM231800 VRB05KT P6SM VCTS SCT030CB BKN060
      AMD LTD TO CLD VIS AND WIND=

USA.gov is the U.S. government's official web portal to all federal, state and local government web resources and services.